Bei Facebook empfehlenBei Twitter postenGoogle plusPinterest

Das Wetter im Erzgebirge am 09.09.2017

Wetter und Klima am 09.09.2017 Holzhau im Erzgebirge (630m ü.NN)
Letzte gemessene Temperatur und Uhrzeit der Messung23:45:00 Uhr10.20 °C
Temperatur (Maximum / Höchstwert) und Uhrzeit der Messung14:30:00 Uhr19.90 °C
Temperatur (Minimum / Tiefstwert) und Uhrzeit der Messung01:45:008.90 °C
Errechneter Absolutwert der Temperaturschwankungen zwischen Tmin und Tmax des Tages11.00 K
Errechnete Tagesmitteltemperatur13.14583 °C
Gesamt - Niederschlag des Tages (in flüssiger Form)2.07 Liter / m²
Luftdruck (Maximum / Höchstwert) und Zeitpunkt der Messung00:00:00 Uhr1003.60 hPa
Luftdruck (Minimum / Tiefstwert) und Zeitpunkt der Messung09:00:00 Uhr999.30 hPa
Errechneter Absolutwert der Luftdruckschwankungen des Tages4.30 hPa
Höchste gemessene Windgeschwindigkeit und Uhrzeit der Messung10:30:00 Uhr49.32 km/h
Errechnete Windhäufigkeit in Relation zu den Messwerten des Tages12.50000 %
Niedrigste Windkühle (Windchill) und Zeitpunkt der Messung01:45:00 Uhr8.90 °C
Taupunkt (Maximum / Höchstwert) und Uhrzeit der Messung14:30:00 Uhr12.70 °C
Taupunkt (Minimum / Tiefstwert) und Uhrzeit der Messung00:45:006.60 °C
Anzahl der automatisch eingelesenen Messwerte 96

Detaillierte Wetter- und Klima- Messwerte für den 09.09.2017 in Holzhau im Erzgebirge (630m ü.NN)
ZeitTemperaturLuftdruckRel. LuftfeuchteWindWindrichtungWindchillTaupunktNiederschlag l/m²
23:45:0010.20 °C1001.40 hPa93.00 %9.10 °C2.07
23:30:0010.20 °C1001.50 hPa93.00 %9.10 °C2.07
23:15:0010.20 °C1001.40 hPa93.00 %9.10 °C2.07
23:00:0010.30 °C1001.00 hPa93.00 %9.20 °C2.07
22:45:0010.30 °C1001.20 hPa92.00 %9.10 °C2.07
22:30:0010.30 °C1001.10 hPa92.00 %9.10 °C1.55
22:15:0010.40 °C1001.00 hPa92.00 %9.20 °C1.55
22:00:0010.40 °C1001.10 hPa92.00 %9.20 °C1.55
21:45:0010.40 °C1001.00 hPa91.00 %9.00 °C1.55
21:30:0010.60 °C1000.90 hPa91.00 %9.20 °C1.55
21:15:0010.60 °C1000.90 hPa91.00 %9.20 °C1.55
21:00:0010.60 °C1001.00 hPa91.00 %9.20 °C1.55
20:45:0010.70 °C1001.00 hPa91.00 %9.30 °C1.03
20:30:0010.80 °C1000.80 hPa90.00 %9.20 °C1.03
20:15:0010.80 °C1000.90 hPa90.00 %9.20 °C1.03
20:00:0010.90 °C1000.90 hPa89.00 %9.20 °C1.03
19:45:0010.90 °C1000.70 hPa89.00 %9.20 °C1.03
19:30:0011.10 °C1000.50 hPa88.00 %9.20 °C1.03
19:15:0011.20 °C1000.70 hPa87.00 %9.10 °C1.03
19:00:0011.40 °C1001.00 hPa87.00 %9.30 °C1.03
18:45:0011.60 °C1000.90 hPa85.00 %9.20 °C1.03
18:30:0011.90 °C1000.90 hPa84.00 %9.30 °C0.51
18:15:0012.20 °C1001.20 hPa82.00 %9.20 °C0.51
18:00:0012.60 °C1001.30 hPa80.00 %9.20 °C0.51
17:45:0013.60 °C1001.30 hPa76.00 %9.50 °C 
17:30:0014.60 °C1001.20 hPa74.00 %10.00 °C 
17:15:0015.20 °C1000.80 hPa72.00 %10.20 °C 
17:00:0015.50 °C1000.40 hPa69.00 %9.80 °C 
16:45:0016.20 °C1000.40 hPa65.00 %9.60 °C 
16:30:0016.90 °C1000.40 hPa66.00 %10.50 °C 
16:15:0017.30 °C1000.20 hPa66.00 %10.90 °C 
16:00:0017.90 °C1000.50 hPa64.00 %11.00 °C 
15:45:0018.60 °C1000.60 hPa63.00 %21.96 km/hS19.30 °C11.40 °C 
15:30:0019.10 °C1000.50 hPa63.00 %21.96 km/hSW19.90 °C11.90 °C 
15:15:0019.50 °C1000.50 hPa63.00 %11.52 km/hSW19.50 °C12.30 °C 
15:00:0019.10 °C1000.10 hPa65.00 %11.52 km/hSW19.10 °C12.40 °C 
14:45:0019.30 °C1000.10 hPa63.00 %12.10 °C 
14:30:0019.90 °C1000.20 hPa63.00 %5.04 km/hSSW19.90 °C12.70 °C 
14:15:0019.50 °C1000.00 hPa64.00 %12.50 °C 
14:00:0019.10 °C999.90 hPa65.00 %12.40 °C 
13:45:0018.80 °C1000.00 hPa66.00 %33.84 km/hSO19.20 °C12.30 °C 
13:30:0018.60 °C999.90 hPa66.00 %16.92 km/hSW18.60 °C12.10 °C 
13:15:0018.60 °C999.90 hPa65.00 %11.90 °C 
13:00:0018.90 °C999.80 hPa64.00 %11.90 °C 
12:45:0019.00 °C999.90 hPa64.00 %12.00 °C 
12:30:0019.20 °C999.70 hPa64.00 %12.20 °C 
12:15:0018.90 °C999.80 hPa64.00 %11.90 °C 
12:00:0018.50 °C999.60 hPa66.00 %12.00 °C 
11:45:0017.90 °C999.60 hPa68.00 %14.40 km/hSO17.90 °C11.90 °C 
11:30:0017.20 °C999.60 hPa67.00 %2.52 km/hONO17.20 °C11.00 °C 
11:15:0016.90 °C999.50 hPa68.00 %11.00 °C 
11:00:0017.00 °C999.70 hPa68.00 %14.40 km/hWSW17.00 °C11.10 °C 
10:45:0016.90 °C999.70 hPa69.00 %11.52 km/hNNO16.90 °C11.20 °C 
10:30:0017.40 °C999.70 hPa69.00 %49.32 km/hOSO17.10 °C11.70 °C 
10:15:0017.30 °C999.60 hPa72.00 %12.20 °C 
10:00:0016.70 °C999.50 hPa73.00 %11.80 °C 
09:45:0016.10 °C999.50 hPa76.00 %11.90 °C 
09:30:0015.30 °C999.60 hPa77.00 %11.30 °C 
09:15:0014.60 °C999.60 hPa80.00 %11.20 °C 
09:00:0014.20 °C999.30 hPa80.00 %10.80 °C 
08:45:0013.90 °C999.60 hPa81.00 %10.70 °C 
08:30:0013.10 °C999.80 hPa83.00 %10.30 °C 
08:15:0012.30 °C1000.00 hPa85.00 %9.90 °C 
08:00:0011.60 °C999.80 hPa87.00 %9.50 °C 
07:45:0011.10 °C1000.20 hPa88.00 %9.20 °C 
07:30:0010.50 °C999.80 hPa88.00 %8.60 °C 
07:15:0010.20 °C1000.00 hPa88.00 %8.30 °C 
07:00:0010.10 °C999.90 hPa88.00 %8.20 °C 
06:45:0010.00 °C999.80 hPa88.00 %8.10 °C 
06:30:0010.20 °C999.90 hPa88.00 %8.30 °C 
06:15:0010.30 °C1000.10 hPa87.00 %8.20 °C 
06:00:0010.40 °C1000.20 hPa87.00 %8.30 °C 
05:45:0010.40 °C1000.30 hPa87.00 %8.30 °C 
05:30:0010.40 °C1000.50 hPa86.00 %8.20 °C 
05:15:0010.70 °C1000.70 hPa86.00 %8.50 °C 
05:00:0010.90 °C1000.70 hPa86.00 %8.70 °C 
04:45:0010.90 °C1000.80 hPa86.00 %8.70 °C 
04:30:0010.70 °C1001.00 hPa87.00 %8.60 °C 
04:15:0010.30 °C1001.10 hPa87.00 %8.20 °C 
04:00:0010.30 °C1001.40 hPa87.00 %8.20 °C 
03:45:0010.40 °C1001.40 hPa87.00 %8.30 °C 
03:30:0010.30 °C1001.70 hPa88.00 %8.40 °C 
03:15:0010.30 °C1001.80 hPa88.00 %8.40 °C 
03:00:0010.20 °C1001.80 hPa89.00 %8.50 °C 
02:45:009.60 °C1002.10 hPa90.00 %8.00 °C 
02:30:009.40 °C1002.20 hPa90.00 %7.80 °C 
02:15:009.20 °C1002.40 hPa89.00 %7.50 °C 
02:00:009.20 °C1002.50 hPa89.00 %7.50 °C 
01:45:008.90 °C1002.60 hPa89.00 %7.20 °C 
01:30:009.00 °C1002.70 hPa88.00 %7.10 °C 
01:15:008.90 °C1002.70 hPa88.00 %7.00 °C 
01:00:008.90 °C1002.60 hPa87.00 %6.90 °C 
00:45:009.00 °C1002.80 hPa85.00 %6.60 °C 
00:30:009.60 °C1003.10 hPa84.00 %7.00 °C 
00:15:0010.30 °C1003.40 hPa83.00 %7.50 °C 
00:00:0010.60 °C1003.60 hPa83.00 %7.80 °C 

Permanenter Link zu dieser Seite: Wetter im Erzgebirge am 09.09.2017
Performance-Info: Die Erstellung der Seite / Statistik(en) / Tabelle(n) erforderte 5 Datenbankserver-Abfrage(n) und dauerte 98 Millisekunden. (Dieser Messwert ist von der Gesamt-Auslastung des Servers abhängig.)
Erzgebirge - Wetter | Erzgebirge - Wetter (Mobilgeräte) | Komplette Klimadatenbank